Time;durP1;ratioP1;P1;durP2;ratioP2;P2;SDS_P1;SDS_P2;PMS_P1;PMS_P2;Temp;Humidity;BMP_temperature;BMP_pressure;BME280_temperature;BME280_humidity;BME280_pressure;Samples;Min_cycle;Max_cycle;Signal;HPM_P1;HPM_P2
2023/08/12 00:01:49;;;;;;;7.85;5.53;;;13.00;99.90;;;;;;5071971;28;20416;-84
2023/08/12 00:04:16;;;;;;;6.25;5.65;;;13.00;99.90;;;;;;5072626;28;20496;-84
2023/08/12 00:06:42;;;;;;;8.32;5.93;;;12.90;99.90;;;;;;5071007;28;20069;-84
2023/08/12 00:09:08;;;;;;;7.60;5.85;;;12.90;99.90;;;;;;5072448;28;20040;-83
2023/08/12 00:11:37;;;;;;;6.85;6.15;;;12.80;99.90;;;;;;5072127;28;20020;-83
2023/08/12 00:14:02;;;;;;;8.30;6.25;;;12.80;99.90;;;;;;5070938;28;20052;-84
2023/08/12 00:16:28;;;;;;;8.27;6.07;;;12.70;99.90;;;;;;5071147;28;20051;-83
2023/08/12 00:18:54;;;;;;;8.80;5.78;;;12.70;99.90;;;;;;5071095;28;20051;-83
2023/08/12 00:21:19;;;;;;;7.30;5.88;;;12.60;99.90;;;;;;5072374;28;20470;-81
2023/08/12 00:23:47;;;;;;;10.38;5.35;;;12.60;99.90;;;;;;5070955;28;20021;-81
2023/08/12 00:26:13;;;;;;;7.13;6.32;;;12.60;99.90;;;;;;5072310;28;20027;-81
2023/08/12 00:28:38;;;;;;;5.88;5.28;;;12.50;99.90;;;;;;5072100;28;20044;-81
2023/08/12 00:31:04;;;;;;;6.45;5.85;;;12.50;99.90;;;;;;5071799;28;20017;-81
2023/08/12 00:33:30;;;;;;;6.25;5.65;;;12.40;99.90;;;;;;5072117;28;20016;-81
2023/08/12 00:35:55;;;;;;;6.60;5.85;;;12.40;99.90;;;;;;5071738;28;20486;-81
2023/08/12 00:38:21;;;;;;;6.43;5.78;;;12.40;99.90;;;;;;5072288;28;20078;-81
2023/08/12 00:40:46;;;;;;;9.60;5.93;;;12.30;99.90;;;;;;5074699;28;20568;-81
2023/08/12 00:43:12;;;;;;;8.82;5.82;;;12.30;99.90;;;;;;5076012;28;20056;-81
2023/08/12 00:45:38;;;;;;;6.00;5.43;;;12.30;99.90;;;;;;5074692;28;20025;-81
2023/08/12 00:48:05;;;;;;;7.10;5.70;;;12.30;99.90;;;;;;5075956;28;20051;-81
2023/08/12 00:50:31;;;;;;;7.20;6.00;;;12.30;99.90;;;;;;5074342;28;20094;-81
2023/08/12 00:52:58;;;;;;;7.10;6.47;;;12.20;99.90;;;;;;5074573;28;20393;-81
2023/08/12 00:55:24;;;;;;;6.50;5.85;;;12.10;99.90;;;;;;5074919;28;20031;-81
2023/08/12 00:57:50;;;;;;;5.70;5.15;;;12.10;99.90;;;;;;5075599;28;20056;-81
2023/08/12 01:00:16;;;;;;;5.38;4.88;;;12.10;99.90;;;;;;5074360;28;20021;-80
2023/08/12 01:02:48;;;;;;;6.35;4.90;;;12.00;99.90;;;;;;5073675;28;20032;-81
2023/08/12 01:05:15;;;;;;;5.28;4.88;;;11.90;99.90;;;;;;5074360;28;20491;-81
2023/08/12 01:07:41;;;;;;;5.43;4.93;;;11.80;99.90;;;;;;5075676;28;20085;-80
2023/08/12 01:10:07;;;;;;;5.53;5.03;;;11.80;99.90;;;;;;5074330;28;20469;-80
2023/08/12 01:12:40;;;;;;;6.07;5.57;;;11.80;99.90;;;;;;5073913;28;20114;-80
2023/08/12 01:15:10;;;;;;;7.95;5.80;;;11.80;99.90;;;;;;5074196;28;20049;-80
2023/08/12 01:17:38;;;;;;;7.65;5.47;;;11.70;99.90;;;;;;5075312;28;20020;-81
2023/08/12 01:20:09;;;;;;;6.43;5.70;;;11.70;99.90;;;;;;5075372;28;20029;-80
2023/08/12 01:22:41;;;;;;;6.20;5.60;;;11.70;99.90;;;;;;5074774;28;20063;-80
2023/08/12 01:25:07;;;;;;;7.60;5.82;;;11.60;99.90;;;;;;5075356;28;20360;-81
2023/08/12 01:27:36;;;;;;;7.15;5.68;;;11.70;99.90;;;;;;5074934;28;20024;-81
2023/08/12 01:30:05;;;;;;;6.18;5.07;;;11.60;99.90;;;;;;5073824;28;20186;-81
2023/08/12 01:32:46;;;;;;;6.00;5.50;;;11.60;99.90;;;;;;5074830;28;20027;-80
2023/08/12 01:35:35;;;;;;;7.43;5.53;;;11.60;99.90;;;;;;5074887;28;20043;-80
2023/08/12 01:38:04;;;;;;;6.43;5.82;;;11.50;99.90;;;;;;5073600;28;20028;-81
2023/08/12 01:40:31;;;;;;;6.50;5.90;;;11.50;99.90;;;;;;5074864;28;20039;-80
2023/08/12 01:42:56;;;;;;;6.57;5.53;;;11.40;99.90;;;;;;5074779;28;20016;-81
2023/08/12 01:45:23;;;;;;;7.13;5.53;;;11.40;99.90;;;;;;5073078;28;20023;-81
2023/08/12 01:47:50;;;;;;;5.60;5.10;;;11.30;99.90;;;;;;5073232;28;20486;-81
2023/08/12 01:50:16;;;;;;;5.68;5.10;;;11.30;99.90;;;;;;5073729;28;20082;-81
2023/08/12 01:52:42;;;;;;;5.68;5.28;;;11.30;99.90;;;;;;5073369;28;20021;-80
2023/08/12 01:55:08;;;;;;;5.80;5.30;;;11.20;99.90;;;;;;5072723;28;20016;-81
2023/08/12 01:57:33;;;;;;;5.20;4.75;;;11.20;99.90;;;;;;5073112;28;20474;-81
2023/08/12 02:00:01;;;;;;;5.85;5.35;;;11.10;99.90;;;;;;5073164;28;20024;-80
2023/08/12 02:02:27;;;;;;;6.68;6.07;;;11.10;99.90;;;;;;5072971;28;20095;-81
2023/08/12 02:04:52;;;;;;;9.50;6.78;;;11.20;99.90;;;;;;5074276;28;20099;-80
2023/08/12 02:07:18;;;;;;;7.53;6.32;;;11.10;99.90;;;;;;5072874;28;20393;-81
2023/08/12 02:09:44;;;;;;;6.47;5.88;;;11.10;99.90;;;;;;5074268;28;20037;-80
2023/08/12 02:12:09;;;;;;;5.65;5.15;;;11.10;99.90;;;;;;5073983;28;20101;-81
2023/08/12 02:14:36;;;;;;;6.78;5.88;;;11.00;99.90;;;;;;5074229;28;20037;-81
2023/08/12 02:17:05;;;;;;;6.20;5.60;;;11.10;99.90;;;;;;5074042;28;20031;-81
2023/08/12 02:19:32;;;;;;;6.63;6.03;;;11.00;99.90;;;;;;5072921;28;20073;-81
2023/08/12 02:21:57;;;;;;;5.93;5.43;;;11.00;99.90;;;;;;5073887;28;20085;-81
2023/08/12 02:24:23;;;;;;;6.40;5.07;;;10.90;99.90;;;;;;5074163;28;20471;-81
2023/08/12 02:26:48;;;;;;;5.68;5.15;;;10.90;99.90;;;;;;5073761;28;20103;-81
2023/08/12 02:29:14;;;;;;;6.97;6.38;;;10.90;99.90;;;;;;5072488;28;20415;-81
2023/08/12 02:31:40;;;;;;;6.80;6.22;;;10.90;99.90;;;;;;5073819;28;20028;-81
2023/08/12 02:34:05;;;;;;;7.93;5.70;;;10.90;99.90;;;;;;5072401;28;20032;-81
2023/08/12 02:36:31;;;;;;;8.55;6.00;;;10.80;99.90;;;;;;5072490;28;20020;-81
2023/08/12 02:38:56;;;;;;;6.13;5.57;;;10.80;99.90;;;;;;5072345;28;20115;-80
2023/08/12 02:41:22;;;;;;;6.38;5.88;;;10.80;99.90;;;;;;5072572;28;20017;-80
2023/08/12 02:43:48;;;;;;;14.63;5.70;;;10.80;99.90;;;;;;5073448;28;20074;-81
2023/08/12 02:46:15;;;;;;;6.78;5.78;;;10.70;99.90;;;;;;5072419;28;20015;-81
2023/08/12 02:48:41;;;;;;;6.15;5.65;;;10.70;99.90;;;;;;5071594;28;20040;-80
2023/08/12 02:51:06;;;;;;;5.47;4.88;;;10.70;99.90;;;;;;5073665;28;20096;-81
2023/08/12 02:53:32;;;;;;;7.95;5.70;;;10.60;99.90;;;;;;5073248;28;20015;-80
2023/08/12 02:55:57;;;;;;;7.70;5.57;;;10.60;99.90;;;;;;5072200;28;20469;-81
2023/08/12 02:58:23;;;;;;;6.07;5.47;;;10.60;99.90;;;;;;5072102;28;20028;-81
2023/08/12 03:00:48;;;;;;;6.70;6.00;;;10.60;99.90;;;;;;5073359;28;20031;-80
2023/08/12 03:03:14;;;;;;;6.40;5.80;;;10.50;99.90;;;;;;5072872;28;20086;-80
2023/08/12 03:05:40;;;;;;;5.78;5.18;;;10.50;99.90;;;;;;5072201;28;20488;-80
2023/08/12 03:08:06;;;;;;;5.97;5.47;;;10.50;99.90;;;;;;5073113;28;20055;-81
2023/08/12 03:10:34;;;;;;;5.78;5.28;;;10.50;99.90;;;;;;5072923;28;20048;-81
2023/08/12 03:12:59;;;;;;;6.03;5.53;;;10.40;99.90;;;;;;5071864;28;20405;-80
2023/08/12 03:15:25;;;;;;;6.05;4.60;;;10.40;99.90;;;;;;5071339;28;20052;-80
2023/08/12 03:17:51;;;;;;;5.38;4.95;;;10.40;99.90;;;;;;5071595;28;20028;-80
2023/08/12 03:20:16;;;;;;;6.57;5.50;;;10.40;99.90;;;;;;5073113;28;20025;-80
2023/08/12 03:22:42;;;;;;;7.43;5.78;;;10.30;99.90;;;;;;5072702;28;20027;-81
2023/08/12 03:25:08;;;;;;;8.40;5.57;;;10.30;99.90;;;;;;5071798;28;20027;-80
2023/08/12 03:27:34;;;;;;;6.35;5.72;;;10.30;99.90;;;;;;5071650;28;20020;-81
2023/08/12 03:30:00;;;;;;;7.20;5.97;;;10.30;99.90;;;;;;5071555;28;20028;-81
2023/08/12 03:32:26;;;;;;;6.60;5.93;;;10.40;99.90;;;;;;5071519;28;20111;-81
2023/08/12 03:34:51;;;;;;;8.32;6.68;;;10.40;99.90;;;;;;5072851;28;20082;-81
2023/08/12 03:37:18;;;;;;;6.97;6.30;;;10.40;99.90;;;;;;5071632;28;20390;-81
2023/08/12 03:39:43;;;;;;;7.07;6.43;;;10.40;99.90;;;;;;5071360;28;20028;-81
2023/08/12 03:42:09;;;;;;;7.15;6.05;;;10.40;99.90;;;;;;5072763;28;20025;-80
2023/08/12 03:44:35;;;;;;;9.88;6.43;;;10.40;99.90;;;;;;5071512;28;20021;-81
2023/08/12 03:47:01;;;;;;;6.05;5.47;;;10.40;99.90;;;;;;5071373;28;20375;-83
2023/08/12 03:49:26;;;;;;;6.38;5.75;;;10.40;99.90;;;;;;5072410;28;20067;-83
2023/08/12 03:51:52;;;;;;;7.50;5.90;;;10.40;99.90;;;;;;5072560;28;20017;-82
2023/08/12 03:54:18;;;;;;;7.03;6.38;;;10.40;99.90;;;;;;5072649;28;20029;-82
2023/08/12 03:56:44;;;;;;;8.75;7.10;;;10.40;99.90;;;;;;5071205;28;20042;-82
2023/08/12 03:59:09;;;;;;;6.35;5.75;;;10.50;99.90;;;;;;5072650;28;20056;-82
2023/08/12 04:01:36;;;;;;;6.35;5.75;;;10.60;99.90;;;;;;5071271;28;20024;-82
2023/08/12 04:04:02;;;;;;;5.63;5.07;;;10.60;99.90;;;;;;5072281;28;20024;-83
2023/08/12 04:06:27;;;;;;;4.90;4.53;;;10.60;99.90;;;;;;5071662;28;20390;-83
2023/08/12 04:08:53;;;;;;;5.82;5.32;;;10.60;99.90;;;;;;5072196;28;20037;-83
2023/08/12 04:11:18;;;;;;;7.60;6.90;;;10.80;99.90;;;;;;5070964;28;20046;-83
2023/08/12 04:13:44;;;;;;;6.10;5.60;;;11.00;99.90;;;;;;5071353;28;20047;-83
2023/08/12 04:16:10;;;;;;;8.05;5.45;;;11.10;99.90;;;;;;5075352;28;20047;-82
2023/08/12 04:18:35;;;;;;;5.45;5.05;;;11.20;99.90;;;;;;5074916;28;20062;-82
2023/08/12 04:21:01;;;;;;;4.55;4.15;;;11.30;99.90;;;;;;5076511;28;20044;-81
2023/08/12 04:23:26;;;;;;;6.00;5.20;;;11.30;99.90;;;;;;5076325;28;20096;-81
2023/08/12 04:25:54;;;;;;;4.82;4.50;;;11.30;99.90;;;;;;5076386;28;20095;-81
2023/08/12 04:28:19;;;;;;;6.07;5.53;;;11.30;99.90;;;;;;5075990;28;20498;-81
2023/08/12 04:30:47;;;;;;;6.63;6.03;;;11.40;99.90;;;;;;5075144;28;20100;-81
2023/08/12 04:33:14;;;;;;;7.03;5.65;;;11.60;99.90;;;;;;5076223;28;20477;-81
2023/08/12 04:35:40;;;;;;;5.70;5.18;;;11.70;99.90;;;;;;5076318;28;20025;-81
2023/08/12 04:38:06;;;;;;;5.25;4.75;;;11.80;99.90;;;;;;5090898;28;20607;-83
2023/08/12 04:40:32;;;;;;;7.13;5.30;;;12.00;99.90;;;;;;5074895;28;20100;-83
2023/08/12 04:43:01;;;;;;;6.60;5.75;;;12.20;99.90;;;;;;5075239;28;20047;-81
2023/08/12 04:45:27;;;;;;;5.95;5.45;;;12.30;99.90;;;;;;5074792;28;20051;-81
2023/08/12 04:47:53;;;;;;;4.95;4.57;;;12.50;99.90;;;;;;5074305;28;20039;-82
2023/08/12 04:50:19;;;;;;;5.70;5.15;;;12.60;99.90;;;;;;5074822;28;20017;-81
2023/08/12 04:52:46;;;;;;;5.13;4.65;;;12.70;99.90;;;;;;5075510;28;20496;-81
2023/08/12 04:55:11;;;;;;;5.05;4.32;;;12.90;99.90;;;;;;5074561;28;20020;-81
2023/08/12 04:57:37;;;;;;;6.03;5.43;;;13.10;99.90;;;;;;5075678;28;21438;-81
2023/08/12 05:00:05;;;;;;;6.45;5.55;;;13.20;99.90;;;;;;5075770;28;20501;-81
2023/08/12 05:02:33;;;;;;;6.72;5.47;;;13.40;99.90;;;;;;5074497;28;20042;-82
2023/08/12 05:04:59;;;;;;;5.88;5.28;;;13.50;99.90;;;;;;5075350;28;20076;-81
2023/08/12 05:07:25;;;;;;;6.57;5.80;;;13.60;99.90;;;;;;5075799;28;20385;-81
2023/08/12 05:09:50;;;;;;;6.80;5.72;;;13.60;99.90;;;;;;5076736;28;20028;-80
2023/08/12 05:12:16;;;;;;;7.03;6.38;;;13.60;99.90;;;;;;5075829;28;20035;-81
2023/08/12 05:14:41;;;;;;;6.35;5.78;;;13.70;99.90;;;;;;5073924;28;20513;-83
2023/08/12 05:17:07;;;;;;;6.88;6.28;;;13.80;99.90;;;;;;5072430;28;20025;-82
2023/08/12 05:19:33;;;;;;;7.00;6.40;;;14.00;99.90;;;;;;5072822;28;20023;-82
2023/08/12 05:21:58;;;;;;;6.22;5.63;;;14.20;99.90;;;;;;5074507;28;20029;-83
2023/08/12 05:24:24;;;;;;;8.38;6.50;;;14.20;99.90;;;;;;5077028;28;20066;-82
2023/08/12 05:26:49;;;;;;;11.30;6.80;;;14.30;99.90;;;;;;5075095;28;20028;-82
2023/08/12 05:29:15;;;;;;;7.18;6.47;;;14.40;99.90;;;;;;5073503;28;20033;-82
2023/08/12 05:31:41;;;;;;;8.23;6.22;;;14.50;99.90;;;;;;5074738;28;20025;-82
2023/08/12 05:34:06;;;;;;;7.97;6.28;;;14.70;99.90;;;;;;5075133;28;20036;-82
2023/08/12 05:36:32;;;;;;;7.70;5.95;;;14.80;99.90;;;;;;5074964;28;20448;-82
2023/08/12 05:38:58;;;;;;;10.15;7.03;;;15.00;99.90;;;;;;5073490;28;20501;-82
2023/08/12 05:41:24;;;;;;;7.25;6.50;;;15.20;99.90;;;;;;5074302;28;20024;-82
2023/08/12 05:43:49;;;;;;;7.20;6.13;;;15.40;99.90;;;;;;5072609;28;20021;-84
2023/08/12 05:46:15;;;;;;;10.55;6.97;;;15.50;99.90;;;;;;5074756;28;20040;-84
2023/08/12 05:48:41;;;;;;;8.93;7.22;;;15.60;99.90;;;;;;5073411;28;20067;-83
2023/08/12 05:51:06;;;;;;;10.10;7.93;;;15.80;99.90;;;;;;5073374;28;20355;-82
2023/08/12 05:53:32;;;;;;;11.68;7.82;;;15.90;99.90;;;;;;5073039;28;20024;-82
2023/08/12 05:55:58;;;;;;;11.25;9.18;;;16.00;99.90;;;;;;5072349;28;20112;-83
2023/08/12 05:58:24;;;;;;;17.50;9.93;;;16.20;99.90;;;;;;5073366;28;20045;-83
2023/08/12 06:00:50;;;;;;;14.07;10.73;;;16.30;99.90;;;;;;5074308;28;20035;-83
2023/08/12 06:03:15;;;;;;;15.57;10.57;;;16.50;99.90;;;;;;5072411;28;20060;-83
2023/08/12 06:05:42;;;;;;;12.23;10.90;;;16.70;99.90;;;;;;5071703;28;20070;-83
2023/08/12 06:08:08;;;;;;;18.25;11.30;;;16.80;99.90;;;;;;5072370;28;20043;-83
2023/08/12 06:10:34;;;;;;;13.57;10.52;;;16.90;99.90;;;;;;5074011;28;20024;-83
2023/08/12 06:13:00;;;;;;;14.95;11.85;;;17.10;99.90;;;;;;5072724;28;20029;-83
2023/08/12 06:15:25;;;;;;;17.88;12.98;;;17.30;99.90;;;;;;5072796;28;20066;-83
2023/08/12 06:17:51;;;;;;;18.98;12.93;;;17.40;99.90;;;;;;5073623;28;20033;-83
2023/08/12 06:20:17;;;;;;;21.15;12.88;;;17.60;99.90;;;;;;5072059;28;20024;-83
2023/08/12 06:22:42;;;;;;;17.65;13.25;;;17.70;99.90;;;;;;5072867;28;20025;-84
2023/08/12 06:25:08;;;;;;;17.08;12.70;;;17.80;99.90;;;;;;5072664;28;20020;-83
2023/08/12 06:27:33;;;;;;;17.23;13.10;;;17.90;99.90;;;;;;5072750;28;20025;-81
2023/08/12 06:29:59;;;;;;;13.80;11.75;;;18.10;99.90;;;;;;5073389;28;20043;-82
2023/08/12 06:32:25;;;;;;;16.27;11.35;;;18.20;99.90;;;;;;5074061;28;20020;-82
2023/08/12 06:34:50;;;;;;;18.65;12.68;;;18.30;99.90;;;;;;5071992;28;20020;-83
2023/08/12 06:37:16;;;;;;;14.65;9.18;;;18.50;99.90;;;;;;5068521;28;20060;-84
2023/08/12 06:39:42;;;;;;;11.10;9.93;;;18.70;98.70;;;;;;5071729;28;20048;-84
2023/08/12 06:42:07;;;;;;;12.80;10.63;;;18.90;97.10;;;;;;5070599;28;20517;-84
2023/08/12 06:44:33;;;;;;;14.48;11.38;;;19.10;93.80;;;;;;5071329;28;20386;-84
2023/08/12 06:46:58;;;;;;;16.13;10.48;;;19.20;95.90;;;;;;5070762;28;20074;-84
2023/08/12 06:49:24;;;;;;;12.85;9.98;;;19.30;96.60;;;;;;5071847;28;20033;-84
2023/08/12 06:51:50;;;;;;;15.30;8.82;;;19.40;96.50;;;;;;5071617;28;20498;-84
2023/08/12 06:54:15;;;;;;;12.90;8.07;;;19.30;88.20;;;;;;5058905;28;20042;-84
2023/08/12 06:56:41;;;;;;;12.35;8.00;;;19.40;85.80;;;;;;5071602;28;20115;-84
2023/08/12 06:59:06;;;;;;;12.30;8.23;;;19.60;83.90;;;;;;5071865;28;20359;-83
2023/08/12 07:01:32;;;;;;;11.05;8.55;;;19.70;84.50;;;;;;5071489;28;20042;-82
2023/08/12 07:03:58;;;;;;;10.75;9.25;;;19.80;84.70;;;;;;5073115;28;20543;-83
2023/08/12 07:06:23;;;;;;;14.73;9.93;;;19.80;83.40;;;;;;5073285;28;20121;-82
2023/08/12 07:08:49;;;;;;;12.07;9.40;;;20.00;84.80;;;;;;5078249;28;20032;-82
2023/08/12 07:11:15;;;;;;;11.60;10.15;;;20.20;87.60;;;;;;5071700;28;20019;-83
2023/08/12 07:13:41;;;;;;;12.55;9.88;;;20.40;85.90;;;;;;5070846;28;20013;-83
2023/08/12 07:16:07;;;;;;;12.90;9.90;;;20.60;84.40;;;;;;5071924;28;20060;-82
2023/08/12 07:18:33;;;;;;;12.00;8.25;;;20.70;82.60;;;;;;5071902;28;20429;-83
2023/08/12 07:20:59;;;;;;;9.80;8.48;;;20.80;79.10;;;;;;5071804;28;20031;-83
2023/08/12 07:23:25;;;;;;;17.33;8.73;;;21.00;75.70;;;;;;5072973;28;20044;-83
2023/08/12 07:25:51;;;;;;;10.27;7.72;;;21.10;76.80;;;;;;5075513;28;20028;-86
2023/08/12 07:28:16;;;;;;;10.15;8.20;;;21.30;75.20;;;;;;5074794;28;20482;-84
2023/08/12 07:30:42;;;;;;;10.50;7.70;;;21.40;74.00;;;;;;5071258;28;20024;-83
2023/08/12 07:33:07;;;;;;;9.48;7.63;;;21.50;71.10;;;;;;5072467;28;20021;-84
2023/08/12 07:35:33;;;;;;;11.65;7.65;;;21.70;70.40;;;;;;5072662;28;20021;-85
2023/08/12 07:37:59;;;;;;;10.00;6.85;;;21.80;68.90;;;;;;5069294;28;20459;-83
2023/08/12 07:40:24;;;;;;;10.73;6.85;;;21.90;69.30;;;;;;5069449;28;20024;-83
2023/08/12 07:42:50;;;;;;;9.38;5.97;;;22.10;69.30;;;;;;5069454;28;20079;-83
2023/08/12 07:45:16;;;;;;;6.28;5.72;;;22.20;67.00;;;;;;5071224;28;20142;-83
2023/08/12 07:47:41;;;;;;;6.97;5.05;;;22.30;62.80;;;;;;5071791;28;20020;-83
2023/08/12 07:50:07;;;;;;;5.95;5.03;;;22.30;63.50;;;;;;5069480;28;20028;-84
2023/08/12 07:52:33;;;;;;;7.97;4.63;;;22.50;62.60;;;;;;5068452;28;20030;-84
2023/08/12 07:54:59;;;;;;;5.88;5.20;;;22.50;59.80;;;;;;5072183;28;20025;-84
2023/08/12 07:57:25;;;;;;;6.40;4.45;;;22.60;59.20;;;;;;5071183;28;20082;-83
2023/08/12 07:59:51;;;;;;;6.05;4.30;;;22.60;59.50;;;;;;5072704;28;20070;-84
2023/08/12 08:02:17;;;;;;;5.45;4.20;;;22.60;59.00;;;;;;5069639;28;20035;-83
2023/08/12 08:04:42;;;;;;;3.67;3.38;;;22.80;58.50;;;;;;5067993;28;20112;-83
2023/08/12 08:07:08;;;;;;;5.57;3.50;;;22.90;58.00;;;;;;5067424;28;20116;-83
2023/08/12 08:09:34;;;;;;;4.47;3.42;;;22.80;55.70;;;;;;5065395;28;20060;-83
2023/08/12 08:12:00;;;;;;;4.72;3.50;;;23.00;55.50;;;;;;5066283;28;20508;-83
2023/08/12 08:14:27;;;;;;;4.10;3.13;;;23.20;56.90;;;;;;5070253;28;20051;-83
2023/08/12 08:16:53;;;;;;;3.38;2.83;;;23.20;55.00;;;;;;5067814;28;20032;-83
2023/08/12 08:19:18;;;;;;;4.10;3.67;;;23.40;55.60;;;;;;5067821;28;20078;-84
2023/08/12 08:21:44;;;;;;;7.72;3.65;;;23.60;55.90;;;;;;5067066;28;20033;-84
2023/08/12 08:24:12;;;;;;;5.07;3.90;;;23.60;56.60;;;;;;5068847;28;20447;-84
2023/08/12 08:26:40;;;;;;;5.00;3.45;;;23.80;55.90;;;;;;5069338;28;20052;-84
2023/08/12 08:29:06;;;;;;;6.18;3.05;;;23.80;54.60;;;;;;5069419;28;20033;-84
2023/08/12 08:31:32;;;;;;;3.53;3.20;;;23.70;53.90;;;;;;5068070;28;20067;-84
2023/08/12 08:33:57;;;;;;;8.98;3.35;;;23.70;53.90;;;;;;5071869;28;20107;-83
2023/08/12 08:36:23;;;;;;;5.07;3.03;;;23.70;54.10;;;;;;5068929;28;20020;-83
2023/08/12 08:38:49;;;;;;;3.83;2.72;;;23.70;53.80;;;;;;5070218;28;20025;-81
2023/08/12 08:41:16;;;;;;;4.35;2.85;;;23.80;53.40;;;;;;5070368;28;20067;-82
2023/08/12 08:43:45;;;;;;;8.90;3.45;;;23.80;53.90;;;;;;5071590;28;20074;-83
2023/08/12 08:46:15;;;;;;;3.78;3.17;;;23.90;54.00;;;;;;5069640;28;20075;-82
2023/08/12 08:48:42;;;;;;;5.88;3.50;;;23.90;53.80;;;;;;5071599;28;20040;-82
2023/08/12 08:51:09;;;;;;;6.15;4.35;;;24.00;53.50;;;;;;5070648;28;20574;-83
2023/08/12 08:53:39;;;;;;;6.43;3.75;;;24.10;53.00;;;;;;5068955;28;20382;-83
2023/08/12 08:56:11;;;;;;;7.60;4.43;;;24.30;53.20;;;;;;5071206;28;20028;-83
2023/08/12 08:58:39;;;;;;;6.10;3.67;;;24.40;53.10;;;;;;5068946;28;20081;-83
2023/08/12 09:01:09;;;;;;;5.00;3.22;;;24.60;55.30;;;;;;5072811;28;20020;-86
2023/08/12 09:03:38;;;;;;;4.10;3.25;;;24.50;54.30;;;;;;5074378;28;20025;-85
2023/08/12 09:06:04;;;;;;;5.35;3.75;;;24.40;53.90;;;;;;5072851;28;20025;-83
2023/08/12 09:08:35;;;;;;;6.28;3.63;;;24.10;53.00;;;;;;5073232;28;20047;-86
2023/08/12 09:11:02;;;;;;;8.07;4.32;;;24.20;55.80;;;;;;5074254;28;20017;-84
2023/08/12 09:13:28;;;;;;;6.20;3.88;;;24.10;53.20;;;;;;5075359;28;20553;-84
2023/08/12 09:15:54;;;;;;;5.65;3.70;;;24.20;53.50;;;;;;5072236;28;20055;-84
2023/08/12 09:18:23;;;;;;;5.35;3.90;;;24.30;54.80;;;;;;5073062;28;20382;-86
2023/08/12 09:20:53;;;;;;;7.80;3.85;;;24.40;54.00;;;;;;5072662;28;20130;-85
2023/08/12 09:23:19;;;;;;;6.28;4.03;;;24.50;53.00;;;;;;5073347;28;20070;-84
2023/08/12 09:25:45;;;;;;;4.90;3.72;;;24.50;52.70;;;;;;5070119;28;20025;-84
2023/08/12 09:28:11;;;;;;;5.72;3.65;;;24.50;52.30;;;;;;5064535;28;20112;-85
2023/08/12 09:30:38;;;;;;;3.65;3.22;;;24.70;53.30;;;;;;5070018;28;20401;-85
2023/08/12 09:33:10;;;;;;;4.38;3.63;;;24.80;54.50;;;;;;5072470;28;20373;-85
2023/08/12 09:35:40;;;;;;;5.45;3.83;;;24.80;51.80;;;;;;5074598;28;20021;-83
2023/08/12 09:38:15;;;;;;;4.90;3.15;;;24.70;51.30;;;;;;5073106;28;20085;-83
2023/08/12 09:40:41;;;;;;;5.97;4.07;;;24.80;53.70;;;;;;5069099;28;20386;-83
2023/08/12 09:43:07;;;;;;;7.60;3.78;;;24.90;52.80;;;;;;5072739;28;20025;-84
2023/08/12 09:45:34;;;;;;;5.00;3.90;;;25.10;53.40;;;;;;5072349;28;20035;-85
2023/08/12 09:48:00;;;;;;;6.15;4.30;;;25.30;52.80;;;;;;5063532;28;20074;-84
2023/08/12 09:50:26;;;;;;;8.10;3.28;;;25.10;50.20;;;;;;5069530;28;20474;-83
2023/08/12 09:52:54;;;;;;;6.35;3.58;;;25.30;51.40;;;;;;5074742;28;20115;-84
2023/08/12 09:55:22;;;;;;;7.05;3.97;;;25.20;51.20;;;;;;5071382;28;20692;-83
2023/08/12 09:57:52;;;;;;;9.30;5.00;;;25.10;49.80;;;;;;5071924;28;20111;-84
2023/08/12 10:00:20;;;;;;;7.40;4.72;;;25.00;50.20;;;;;;5070985;28;20106;-84
2023/08/12 10:02:48;;;;;;;10.90;5.20;;;24.90;51.00;;;;;;5071563;28;20078;-84
2023/08/12 10:05:32;;;;;;;8.18;4.93;;;24.90;51.70;;;;;;5070506;28;20020;-85
2023/08/12 10:07:58;;;;;;;6.70;4.13;;;24.90;52.70;;;;;;5071294;28;20025;-84
2023/08/12 10:10:24;;;;;;;8.93;4.45;;;25.00;51.90;;;;;;5073335;28;20021;-84
2023/08/12 10:12:50;;;;;;;10.55;6.53;;;25.30;50.00;;;;;;5072570;28;20020;-84
2023/08/12 10:15:16;;;;;;;7.28;5.70;;;25.20;51.50;;;;;;5072684;28;20145;-84
2023/08/12 10:17:43;;;;;;;15.52;8.23;;;25.50;52.60;;;;;;5071276;28;20052;-83
2023/08/12 10:20:13;;;;;;;15.35;8.00;;;25.20;51.30;;;;;;5073281;28;20024;-84
2023/08/12 10:22:42;;;;;;;15.23;8.32;;;25.20;51.10;;;;;;5073572;28;20046;-85
2023/08/12 10:25:08;;;;;;;14.88;8.00;;;25.20;51.30;;;;;;5073400;28;20035;-84
2023/08/12 10:27:35;;;;;;;12.93;7.07;;;25.20;51.70;;;;;;5071868;28;20016;-84
2023/08/12 10:30:04;;;;;;;12.90;7.38;;;25.20;52.30;;;;;;5071071;28;20064;-84
2023/08/12 10:32:32;;;;;;;11.75;6.63;;;25.00;51.10;;;;;;5073341;28;20028;-85
2023/08/12 10:34:58;;;;;;;16.20;8.65;;;25.00;50.50;;;;;;5072700;28;20028;-84
2023/08/12 10:37:27;;;;;;;13.32;7.18;;;25.10;52.40;;;;;;5071803;28;20073;-85
2023/08/12 10:39:54;;;;;;;16.10;7.70;;;25.10;51.70;;;;;;5073171;28;20051;-84
2023/08/12 10:42:44;;;;;;;16.05;7.70;;;25.10;52.90;;;;;;5073492;28;20048;-85
2023/08/12 10:45:14;;;;;;;12.60;6.70;;;25.00;51.50;;;;;;5066446;28;20044;-84
2023/08/12 10:47:49;;;;;;;11.43;6.57;;;25.10;51.30;;;;;;5072099;28;20050;-83
2023/08/12 10:50:19;;;;;;;14.55;6.55;;;25.40;51.60;;;;;;5072197;28;20036;-82
2023/08/12 10:52:46;;;;;;;10.05;6.78;;;25.50;52.90;;;;;;5072318;28;20009;-81
2023/08/12 10:55:23;;;;;;;11.02;6.80;;;25.70;52.20;;;;;;5071859;28;20164;-84
2023/08/12 10:57:50;;;;;;;12.43;7.35;;;25.90;53.50;;;;;;5071473;28;20379;-84
2023/08/12 11:00:18;;;;;;;9.95;7.22;;;25.90;51.30;;;;;;5071461;28;20024;-82
2023/08/12 11:02:46;;;;;;;11.38;6.32;;;25.90;50.60;;;;;;5070998;28;20020;-82
2023/08/12 11:05:12;;;;;;;9.55;7.22;;;25.80;49.70;;;;;;5071643;28;20473;-82
2023/08/12 11:07:47;;;;;;;12.00;7.20;;;25.80;49.80;;;;;;5073134;28;20081;-80
2023/08/12 11:10:15;;;;;;;12.63;7.50;;;25.90;50.20;;;;;;5071374;28;20028;-81
2023/08/12 11:12:47;;;;;;;12.65;7.53;;;26.00;51.20;;;;;;5071319;28;20036;-80
2023/08/12 11:15:12;;;;;;;14.32;8.35;;;25.90;51.40;;;;;;5070656;28;20063;-81
2023/08/12 11:17:42;;;;;;;16.92;7.88;;;25.90;50.50;;;;;;5071560;28;20025;-81
2023/08/12 11:20:12;;;;;;;14.43;7.18;;;25.80;50.60;;;;;;5071281;28;20382;-81
2023/08/12 11:22:44;;;;;;;14.63;6.93;;;25.80;50.30;;;;;;5072244;28;20040;-81
2023/08/12 11:25:13;;;;;;;11.57;7.43;;;25.90;51.70;;;;;;5072869;28;20029;-81
2023/08/12 11:27:42;;;;;;;11.82;6.90;;;26.10;52.70;;;;;;5071976;28;20271;-81
2023/08/12 11:30:10;;;;;;;10.13;6.47;;;26.20;53.30;;;;;;5071101;28;20062;-81
2023/08/12 11:32:36;;;;;;;14.70;7.22;;;26.20;52.00;;;;;;5064457;28;20422;-81
2023/08/12 11:35:03;;;;;;;12.70;6.55;;;26.30;52.30;;;;;;5071848;28;20032;-82
2023/08/12 11:37:29;;;;;;;14.73;6.35;;;26.30;52.50;;;;;;5070620;28;20020;-83
2023/08/12 11:39:55;;;;;;;9.02;6.63;;;26.30;51.60;;;;;;5084167;28;20023;-83
2023/08/12 11:42:20;;;;;;;15.80;6.88;;;26.30;52.60;;;;;;5065297;28;20112;-82
2023/08/12 11:44:46;;;;;;;10.82;5.95;;;26.20;50.40;;;;;;5071337;28;20053;-83
2023/08/12 11:47:11;;;;;;;9.18;4.70;;;26.20;51.60;;;;;;5072031;28;20036;-83
2023/08/12 11:49:37;;;;;;;10.15;5.07;;;26.10;51.00;;;;;;5071377;28;20108;-83
2023/08/12 11:52:04;;;;;;;8.63;5.30;;;26.20;53.20;;;;;;5072092;28;20028;-83
2023/08/12 11:54:30;;;;;;;7.47;4.53;;;26.20;51.50;;;;;;5071586;28;20020;-81
2023/08/12 11:56:57;;;;;;;7.20;5.05;;;26.40;52.80;;;;;;5071092;28;20032;-82
2023/08/12 11:59:22;;;;;;;13.52;5.57;;;26.50;50.80;;;;;;5065786;28;20039;-83
2023/08/12 12:01:51;;;;;;;13.30;6.05;;;26.60;50.60;;;;;;5068536;28;20033;-82
2023/08/12 12:04:20;;;;;;;7.78;5.25;;;26.60;50.90;;;;;;5068701;28;20035;-83
2023/08/12 12:06:46;;;;;;;10.43;4.78;;;26.70;51.70;;;;;;5070385;28;20058;-82
2023/08/12 12:09:13;;;;;;;9.52;5.18;;;26.90;52.80;;;;;;5070856;28;20070;-82
2023/08/12 12:11:40;;;;;;;10.10;4.93;;;27.10;54.50;;;;;;5071352;28;20027;-82
2023/08/12 12:14:08;;;;;;;7.40;4.70;;;26.90;52.00;;;;;;5070698;28;20045;-81
2023/08/12 12:16:38;;;;;;;10.23;5.30;;;26.90;51.50;;;;;;5071090;28;20154;-81
2023/08/12 12:19:05;;;;;;;7.20;5.25;;;27.00;54.10;;;;;;5070256;28;20370;-80
2023/08/12 12:21:39;;;;;;;6.80;5.25;;;26.90;53.20;;;;;;5068737;28;20023;-80
2023/08/12 12:24:05;;;;;;;8.82;5.15;;;27.00;53.40;;;;;;5070134;28;20024;-80
2023/08/12 12:26:32;;;;;;;5.57;4.20;;;26.90;52.10;;;;;;5071349;28;20031;-81
2023/08/12 12:28:57;;;;;;;4.78;4.22;;;26.90;51.40;;;;;;5069106;28;20477;-81
2023/08/12 12:31:23;;;;;;;6.72;4.10;;;27.00;52.00;;;;;;5070442;28;20104;-81
2023/08/12 12:33:49;;;;;;;8.57;5.38;;;27.20;52.00;;;;;;5069747;28;20082;-81
2023/08/12 12:36:14;;;;;;;7.85;4.50;;;27.20;51.90;;;;;;5074806;28;20066;-80
2023/08/12 12:38:40;;;;;;;7.90;5.05;;;27.10;53.00;;;;;;5075145;28;20044;-80
2023/08/12 12:41:05;;;;;;;10.43;5.13;;;26.70;51.50;;;;;;5074544;28;20016;-80